Altamont, New York
Current Conditions -  °F | °C
As of 8:51 AM on Thursday 30 Oct 2014 (Local Time) from KALB Reporting Station
Broken Clouds Broken Clouds  
Wind Chill: 45°   Ceiling: 4300
Heat Index: 49°   Visibility: 10mi
Dew Point: 39°   Wind: 8mph
Humidity: 69%   Direction: 280°W
Pressure: 29.99"   Gusts: NA
Location:  42.7°N, 74.03°W
Report Text: KALB 301251Z 28007KT 10SM FEW026 BKN043 BKN070 09/04 A2999 RMK AO2 SLP158 T00940039
Loading
Personal Weather Stations






























Interactive Weather Map
Tropical Storm Tracking
New forecast layout! Learn more

10-Day Weather Forecast

Advertisements
Track Severe Weather on mobile